Time;durP1;ratioP1;P1;durP2;ratioP2;P2;SDS_P1;SDS_P2;PMS_P1;PMS_P2;Temp;Humidity;BMP_temperature;BMP_pressure;BME280_temperature;BME280_humidity;BME280_pressure;Samples;Min_cycle;Max_cycle;Signal;HPM_P1;HPM_P2
2023/07/03 00:01:58;;;;;;;23.08;14.55;;;15.30;63.60;;;;;;5029659;28;20112;-74
2023/07/03 00:04:24;;;;;;;21.98;14.18;;;15.30;63.90;;;;;;5032574;28;20028;-74
2023/07/03 00:06:50;;;;;;;23.90;15.32;;;15.20;63.80;;;;;;5033213;28;20021;-74
2023/07/03 00:09:15;;;;;;;22.02;14.93;;;15.10;64.40;;;;;;5033128;28;20504;-74
2023/07/03 00:11:41;;;;;;;24.17;15.30;;;15.20;64.50;;;;;;5033175;28;20048;-74
2023/07/03 00:14:06;;;;;;;23.25;15.10;;;15.20;64.70;;;;;;5033153;28;20121;-74
2023/07/03 00:16:32;;;;;;;23.63;14.52;;;15.20;64.40;;;;;;5031819;28;20025;-75
2023/07/03 00:18:58;;;;;;;22.33;14.25;;;15.10;64.60;;;;;;5032965;28;20025;-75
2023/07/03 00:21:25;;;;;;;22.05;14.95;;;15.10;64.90;;;;;;5032932;28;20040;-75
2023/07/03 00:23:50;;;;;;;21.13;14.57;;;15.10;65.10;;;;;;5032867;28;20094;-74
2023/07/03 00:26:16;;;;;;;24.25;14.73;;;15.20;64.90;;;;;;5032981;28;20068;-75
2023/07/03 00:28:41;;;;;;;24.55;14.60;;;15.10;64.90;;;;;;5032931;28;20520;-75
2023/07/03 00:31:07;;;;;;;25.92;15.70;;;15.10;64.40;;;;;;5032759;28;20362;-75
2023/07/03 00:33:33;;;;;;;22.77;14.20;;;15.10;64.80;;;;;;5032875;28;20105;-76
2023/07/03 00:35:58;;;;;;;20.65;14.60;;;15.10;64.80;;;;;;5032774;28;20057;-74
2023/07/03 00:38:24;;;;;;;22.17;14.70;;;15.00;64.80;;;;;;5032566;28;20033;-74
2023/07/03 00:40:50;;;;;;;21.02;14.88;;;14.90;65.10;;;;;;5032516;28;20030;-74
2023/07/03 00:43:16;;;;;;;21.55;14.00;;;14.90;65.00;;;;;;5032701;28;20462;-74
2023/07/03 00:45:42;;;;;;;24.02;14.82;;;14.90;65.40;;;;;;5032550;28;20021;-74
2023/07/03 00:48:08;;;;;;;23.40;15.20;;;14.90;65.30;;;;;;5032431;28;20434;-75
2023/07/03 00:50:34;;;;;;;23.50;14.88;;;14.80;65.30;;;;;;5032022;28;20021;-75
2023/07/03 00:53:03;;;;;;;18.35;14.20;;;14.80;65.50;;;;;;5032188;28;20065;-75
2023/07/03 00:55:31;;;;;;;24.05;15.00;;;14.70;65.70;;;;;;5032433;28;20090;-74
2023/07/03 00:57:56;;;;;;;17.42;13.50;;;14.80;65.70;;;;;;5032325;28;20082;-74
2023/07/03 01:00:25;;;;;;;23.10;14.70;;;14.70;66.10;;;;;;5032181;28;20508;-75
2023/07/03 01:03:14;;;;;;;22.30;15.40;;;14.80;65.90;;;;;;5032348;28;20499;-75
2023/07/03 01:05:46;;;;;;;23.02;15.25;;;14.80;66.10;;;;;;5032340;28;20117;-74
2023/07/03 01:08:12;;;;;;;24.75;15.02;;;14.70;66.40;;;;;;5032284;28;20029;-75
2023/07/03 01:10:40;;;;;;;26.02;14.95;;;14.70;66.30;;;;;;5032121;28;20386;-74
2023/07/03 01:13:08;;;;;;;23.95;15.60;;;14.60;66.40;;;;;;5030792;28;20504;-75
2023/07/03 01:15:38;;;;;;;23.88;15.55;;;14.50;66.50;;;;;;5031856;28;20026;-75
2023/07/03 01:18:06;;;;;;;26.13;15.57;;;14.50;66.60;;;;;;5032146;28;20028;-74
2023/07/03 01:20:37;;;;;;;22.75;15.40;;;14.60;66.50;;;;;;5032102;28;20114;-74
2023/07/03 01:23:27;;;;;;;23.13;14.98;;;14.60;66.30;;;;;;5032052;28;20037;-74
2023/07/03 01:25:54;;;;;;;22.25;15.35;;;14.60;66.20;;;;;;5032105;28;20030;-74
2023/07/03 01:28:22;;;;;;;25.88;15.68;;;14.70;66.20;;;;;;5031893;28;20049;-75
2023/07/03 01:30:50;;;;;;;23.02;15.65;;;14.70;66.20;;;;;;5032010;28;20026;-75
2023/07/03 01:33:21;;;;;;;20.77;15.38;;;14.60;66.10;;;;;;5032064;28;20025;-75
2023/07/03 01:35:49;;;;;;;25.65;15.52;;;14.60;66.40;;;;;;5031922;28;20022;-75
2023/07/03 01:38:17;;;;;;;24.77;15.98;;;14.60;66.20;;;;;;5031734;28;20039;-74
2023/07/03 01:40:43;;;;;;;26.63;15.93;;;14.70;66.10;;;;;;5031622;28;20018;-74
2023/07/03 01:43:10;;;;;;;22.15;14.50;;;14.60;66.10;;;;;;5031744;28;20093;-76
2023/07/03 01:45:47;;;;;;;21.55;14.85;;;14.70;66.40;;;;;;5031688;28;20057;-74
2023/07/03 01:48:13;;;;;;;24.65;15.95;;;14.70;66.50;;;;;;5031682;28;20049;-74
2023/07/03 01:50:39;;;;;;;21.67;15.73;;;14.60;66.30;;;;;;5031529;28;20086;-74
2023/07/03 01:53:14;;;;;;;22.70;14.70;;;14.50;66.70;;;;;;5031609;28;20049;-74
2023/07/03 01:55:49;;;;;;;23.00;15.27;;;14.50;66.80;;;;;;5031533;28;20024;-74
2023/07/03 01:58:30;;;;;;;22.05;14.88;;;14.60;66.50;;;;;;5031655;28;20025;-75
2023/07/03 02:01:07;;;;;;;22.08;14.75;;;14.60;66.50;;;;;;5031393;28;20079;-75
2023/07/03 02:03:49;;;;;;;29.30;14.80;;;14.60;66.40;;;;;;5031638;28;20025;-75
2023/07/03 02:06:20;;;;;;;24.83;15.32;;;14.60;66.50;;;;;;5031566;28;20021;-74
2023/07/03 02:08:48;;;;;;;30.73;15.18;;;14.60;66.70;;;;;;5031343;28;20029;-75
2023/07/03 02:11:15;;;;;;;23.80;15.52;;;14.60;66.60;;;;;;5031369;28;20021;-74
2023/07/03 02:13:41;;;;;;;21.75;14.27;;;14.70;66.70;;;;;;5031225;28;20021;-75
2023/07/03 02:16:06;;;;;;;24.35;15.50;;;14.70;66.50;;;;;;5031255;28;20033;-74
2023/07/03 02:18:33;;;;;;;21.35;14.80;;;14.70;66.40;;;;;;5031206;28;20028;-74
2023/07/03 02:20:59;;;;;;;24.58;15.43;;;14.80;66.90;;;;;;5031100;28;20056;-74
2023/07/03 02:23:25;;;;;;;26.60;15.00;;;14.80;66.60;;;;;;5031162;28;20033;-74
2023/07/03 02:25:51;;;;;;;23.02;14.98;;;14.80;67.00;;;;;;5030298;28;20029;-74
2023/07/03 02:28:18;;;;;;;23.17;15.43;;;14.90;65.60;;;;;;5029908;28;20034;-74
2023/07/03 02:30:43;;;;;;;27.33;15.43;;;14.90;65.80;;;;;;5031072;28;20022;-75
2023/07/03 02:33:11;;;;;;;22.45;15.13;;;14.80;66.20;;;;;;5031118;28;20033;-75
2023/07/03 02:35:37;;;;;;;21.35;14.52;;;14.90;66.00;;;;;;5030901;28;20025;-74
2023/07/03 02:38:03;;;;;;;23.40;14.48;;;14.90;66.00;;;;;;5030971;28;20022;-75
2023/07/03 02:40:29;;;;;;;25.35;14.85;;;15.00;65.90;;;;;;5030906;28;20021;-75
2023/07/03 02:42:54;;;;;;;22.25;14.35;;;14.90;65.90;;;;;;5030924;28;20034;-74
2023/07/03 02:45:20;;;;;;;21.33;14.35;;;14.90;66.20;;;;;;5030796;28;20101;-75
2023/07/03 02:47:46;;;;;;;20.50;14.00;;;15.00;65.90;;;;;;5030847;28;20025;-74
2023/07/03 02:50:11;;;;;;;24.42;15.35;;;15.00;65.80;;;;;;5030846;28;20036;-75
2023/07/03 02:52:37;;;;;;;21.63;13.93;;;15.10;65.70;;;;;;5030870;28;20053;-74
2023/07/03 02:55:02;;;;;;;24.45;14.88;;;15.10;65.50;;;;;;5030737;28;20377;-74
2023/07/03 02:57:28;;;;;;;21.30;14.23;;;15.20;65.40;;;;;;5029574;28;20033;-74
2023/07/03 02:59:54;;;;;;;21.17;13.35;;;15.20;65.40;;;;;;5030461;28;20029;-74
2023/07/03 03:02:20;;;;;;;23.52;14.27;;;15.20;65.40;;;;;;5030463;28;20044;-74
2023/07/03 03:04:47;;;;;;;24.40;14.77;;;15.20;65.50;;;;;;5030543;28;20048;-74
2023/07/03 03:07:13;;;;;;;24.65;14.50;;;15.20;65.40;;;;;;5030623;28;20029;-74
2023/07/03 03:09:40;;;;;;;25.25;14.82;;;15.30;65.40;;;;;;5030321;28;20026;-73
2023/07/03 03:12:06;;;;;;;22.25;13.60;;;15.30;65.40;;;;;;5030524;28;20397;-74
2023/07/03 03:14:32;;;;;;;22.58;14.73;;;15.20;65.40;;;;;;5028964;28;20070;-74
2023/07/03 03:16:58;;;;;;;22.15;14.43;;;15.20;65.70;;;;;;5030314;28;20428;-74
2023/07/03 03:19:23;;;;;;;22.27;14.77;;;15.20;65.80;;;;;;5030366;28;20028;-73
2023/07/03 03:21:52;;;;;;;25.08;14.90;;;15.20;65.50;;;;;;5030199;28;20033;-74
2023/07/03 03:24:18;;;;;;;21.80;14.68;;;15.20;65.60;;;;;;5030204;28;20028;-74
2023/07/03 03:26:43;;;;;;;24.08;14.38;;;15.30;65.60;;;;;;5030146;28;20018;-74
2023/07/03 03:29:09;;;;;;;20.35;12.77;;;15.30;65.30;;;;;;5030163;28;20037;-74
2023/07/03 03:31:35;;;;;;;20.15;13.13;;;15.30;65.20;;;;;;5028892;28;20029;-74
2023/07/03 03:34:00;;;;;;;19.60;13.68;;;15.30;65.20;;;;;;5030069;28;20474;-74
2023/07/03 03:36:26;;;;;;;19.10;13.15;;;15.40;65.20;;;;;;5029788;28;20056;-74
2023/07/03 03:38:51;;;;;;;21.45;13.63;;;15.40;65.00;;;;;;5029995;28;20025;-74
2023/07/03 03:41:17;;;;;;;23.33;14.35;;;15.50;64.80;;;;;;5029769;28;20163;-74
2023/07/03 03:43:45;;;;;;;22.83;14.57;;;15.50;64.60;;;;;;5035347;28;20045;-74
2023/07/03 03:46:10;;;;;;;24.20;13.90;;;15.60;64.40;;;;;;5029989;28;20492;-74
2023/07/03 03:48:36;;;;;;;22.33;13.55;;;15.60;64.30;;;;;;5028500;28;20025;-74
2023/07/03 03:51:02;;;;;;;20.90;13.63;;;15.50;64.60;;;;;;5029847;28;20030;-74
2023/07/03 03:53:28;;;;;;;20.60;12.43;;;15.60;64.30;;;;;;5029757;28;20029;-73
2023/07/03 03:55:53;;;;;;;22.85;13.68;;;15.60;63.90;;;;;;5029739;28;20057;-72
2023/07/03 03:58:21;;;;;;;22.05;12.75;;;15.70;63.90;;;;;;5029625;28;20049;-72
2023/07/03 04:00:47;;;;;;;23.40;13.13;;;15.70;63.80;;;;;;5029430;28;20029;-73
2023/07/03 04:03:13;;;;;;;26.77;13.65;;;15.70;63.60;;;;;;5028402;28;20400;-74
2023/07/03 04:05:41;;;;;;;18.65;12.63;;;15.70;63.60;;;;;;5029660;28;20025;-74
2023/07/03 04:08:07;;;;;;;20.23;12.50;;;15.70;63.50;;;;;;5029560;28;20022;-76
2023/07/03 04:10:33;;;;;;;18.27;12.73;;;15.80;63.60;;;;;;5029597;28;20061;-76
2023/07/03 04:12:58;;;;;;;18.52;13.25;;;15.80;63.70;;;;;;5029649;28;20049;-75
2023/07/03 04:15:24;;;;;;;19.00;12.50;;;15.80;63.40;;;;;;5029518;28;20505;-75
2023/07/03 04:17:50;;;;;;;21.67;12.13;;;15.90;62.90;;;;;;5029503;28;20075;-74
2023/07/03 04:20:17;;;;;;;25.77;14.05;;;16.00;62.40;;;;;;5029454;28;20030;-74
2023/07/03 04:22:43;;;;;;;22.65;14.15;;;16.00;62.00;;;;;;5029415;28;20073;-74
2023/07/03 04:25:09;;;;;;;22.80;13.45;;;16.00;61.80;;;;;;5029417;28;20100;-74
2023/07/03 04:27:37;;;;;;;21.67;13.48;;;16.10;61.90;;;;;;5027912;28;20370;-75
2023/07/03 04:30:04;;;;;;;23.00;13.30;;;16.10;61.80;;;;;;5029336;28;20022;-74
2023/07/03 04:32:30;;;;;;;23.40;12.70;;;16.20;61.80;;;;;;5029512;28;20384;-74
2023/07/03 04:34:57;;;;;;;19.00;12.00;;;16.20;61.50;;;;;;5029084;28;20036;-75
2023/07/03 04:37:26;;;;;;;18.38;11.50;;;16.20;61.40;;;;;;5029265;28;20029;-75
2023/07/03 04:39:54;;;;;;;21.38;11.50;;;16.20;61.40;;;;;;5028791;28;20085;-75
2023/07/03 04:42:20;;;;;;;19.45;11.27;;;16.30;59.20;;;;;;5029235;28;20490;-75
2023/07/03 04:44:48;;;;;;;18.83;11.40;;;16.40;59.70;;;;;;5029125;28;20035;-75
2023/07/03 04:47:15;;;;;;;21.77;12.20;;;16.50;60.30;;;;;;5028829;28;20090;-75
2023/07/03 04:49:41;;;;;;;17.58;10.65;;;16.50;60.60;;;;;;5030496;28;20093;-74
2023/07/03 04:52:07;;;;;;;19.38;11.25;;;16.60;60.80;;;;;;5032351;28;20056;-74
2023/07/03 04:54:32;;;;;;;19.80;10.73;;;16.70;61.10;;;;;;5032387;28;20021;-73
2023/07/03 04:56:58;;;;;;;16.90;11.05;;;16.70;60.80;;;;;;5032268;28;20032;-74
2023/07/03 04:59:23;;;;;;;18.42;11.13;;;16.80;60.70;;;;;;5031869;28;20026;-73
2023/07/03 05:01:49;;;;;;;17.30;10.88;;;16.80;60.50;;;;;;5031910;28;20034;-74
2023/07/03 05:04:14;;;;;;;17.13;10.80;;;16.90;60.30;;;;;;5032377;28;20048;-74
2023/07/03 05:06:40;;;;;;;17.13;10.10;;;17.00;60.00;;;;;;5032459;28;20048;-74
2023/07/03 05:09:08;;;;;;;17.27;10.40;;;17.10;59.90;;;;;;5032275;28;20111;-73
2023/07/03 05:11:33;;;;;;;19.63;10.88;;;17.10;59.20;;;;;;5032192;28;20347;-73
2023/07/03 05:13:59;;;;;;;15.40;9.20;;;17.20;58.90;;;;;;5031896;28;20026;-74
2023/07/03 05:16:25;;;;;;;19.23;9.68;;;17.30;58.80;;;;;;5032100;28;20173;-74
2023/07/03 05:18:51;;;;;;;18.50;10.68;;;17.30;58.80;;;;;;5031995;28;20021;-75
2023/07/03 05:21:16;;;;;;;16.48;9.88;;;17.30;58.90;;;;;;5031902;28;20044;-75
2023/07/03 05:23:42;;;;;;;19.95;10.45;;;17.40;58.70;;;;;;5031675;28;20056;-75
2023/07/03 05:26:07;;;;;;;17.52;9.43;;;17.40;58.50;;;;;;5031872;28;20021;-75
2023/07/03 05:28:36;;;;;;;18.25;9.82;;;17.50;58.30;;;;;;5031556;28;20082;-74
2023/07/03 05:31:02;;;;;;;17.42;9.60;;;17.60;57.30;;;;;;5031452;28;20024;-74
2023/07/03 05:33:28;;;;;;;16.95;9.00;;;17.60;57.40;;;;;;5031732;28;20030;-75
2023/07/03 05:35:57;;;;;;;15.82;9.20;;;17.70;57.30;;;;;;5031635;28;20470;-73
2023/07/03 05:38:22;;;;;;;14.60;9.20;;;17.70;57.00;;;;;;5031428;28;20869;-72
2023/07/03 05:40:50;;;;;;;14.90;8.77;;;17.80;56.70;;;;;;5031459;28;20061;-73
2023/07/03 05:43:16;;;;;;;16.25;9.27;;;17.90;56.20;;;;;;5031554;28;20063;-72
2023/07/03 05:45:42;;;;;;;14.25;9.05;;;18.00;55.70;;;;;;5031552;28;20394;-72
2023/07/03 05:48:07;;;;;;;13.50;8.88;;;18.10;55.50;;;;;;5031359;28;20060;-73
2023/07/03 05:50:33;;;;;;;17.75;9.82;;;18.20;55.30;;;;;;5031097;28;20129;-74
2023/07/03 05:52:58;;;;;;;15.10;8.90;;;18.30;55.70;;;;;;5031224;28;20029;-72
2023/07/03 05:55:24;;;;;;;18.52;9.52;;;18.40;55.40;;;;;;5031241;28;20037;-71
2023/07/03 05:57:49;;;;;;;19.90;9.77;;;18.50;54.90;;;;;;5029661;28;20025;-72
2023/07/03 06:00:15;;;;;;;17.95;9.60;;;18.40;54.10;;;;;;5030910;28;20041;-72
2023/07/03 06:02:42;;;;;;;18.60;9.52;;;18.50;53.30;;;;;;5031115;28;20038;-71
2023/07/03 06:05:09;;;;;;;19.85;10.07;;;18.50;53.20;;;;;;5031025;28;20108;-72
2023/07/03 06:07:35;;;;;;;20.52;10.35;;;18.50;53.20;;;;;;5031154;28;20082;-74
2023/07/03 06:10:01;;;;;;;17.10;8.48;;;18.40;52.80;;;;;;5031142;28;20100;-72
2023/07/03 06:12:29;;;;;;;17.95;9.38;;;18.50;52.60;;;;;;5031102;28;20097;-74
2023/07/03 06:14:59;;;;;;;21.25;9.82;;;18.40;52.50;;;;;;5031049;28;20161;-76
2023/07/03 06:17:26;;;;;;;26.30;10.15;;;18.20;52.30;;;;;;5031125;28;20459;-73
2023/07/03 06:19:51;;;;;;;22.10;9.82;;;18.10;53.40;;;;;;5030974;28;20074;-74
2023/07/03 06:22:17;;;;;;;20.33;9.13;;;18.00;52.00;;;;;;5030835;28;20407;-76
2023/07/03 06:24:43;;;;;;;17.10;9.07;;;17.90;52.30;;;;;;5031125;28;20021;-74
2023/07/03 06:27:09;;;;;;;25.02;9.98;;;17.90;52.10;;;;;;5030525;28;20051;-74
2023/07/03 06:29:34;;;;;;;20.52;9.63;;;17.90;52.40;;;;;;5031033;28;20127;-75
2023/07/03 06:32:00;;;;;;;15.52;8.93;;;18.00;51.70;;;;;;5029470;28;20026;-75
2023/07/03 06:34:25;;;;;;;20.88;9.70;;;18.20;51.70;;;;;;5030866;28;20039;-75
2023/07/03 06:36:51;;;;;;;21.10;9.35;;;18.10;50.90;;;;;;5030749;28;20025;-75
2023/07/03 06:39:17;;;;;;;23.65;9.82;;;18.10;50.70;;;;;;5030791;28;20461;-75
2023/07/03 06:41:43;;;;;;;24.85;10.25;;;18.00;51.30;;;;;;5030458;28;20049;-75
2023/07/03 06:44:16;;;;;;;17.15;8.85;;;18.10;51.80;;;;;;5030691;28;20022;-75
2023/07/03 06:46:42;;;;;;;22.60;9.23;;;18.10;51.10;;;;;;5029707;28;20471;-75
2023/07/03 06:49:08;;;;;;;27.90;15.60;;;18.20;51.10;;;;;;5029155;28;20493;-75
2023/07/03 06:51:35;;;;;;;18.90;9.63;;;18.20;50.80;;;;;;5029291;28;20033;-76
2023/07/03 06:54:01;;;;;;;15.32;8.85;;;18.30;51.30;;;;;;5029270;28;20032;-76
2023/07/03 06:56:28;;;;;;;19.55;8.77;;;18.20;50.40;;;;;;5029023;28;20022;-75
2023/07/03 06:58:53;;;;;;;19.88;9.10;;;18.40;50.00;;;;;;5029095;28;20033;-75
2023/07/03 07:01:21;;;;;;;20.15;9.50;;;18.50;49.70;;;;;;5029241;28;20033;-75
2023/07/03 07:03:47;;;;;;;20.08;9.25;;;18.60;49.00;;;;;;5029010;28;20120;-75
2023/07/03 07:06:22;;;;;;;21.33;9.23;;;18.80;49.20;;;;;;5028974;28;20022;-75
2023/07/03 07:08:48;;;;;;;25.52;10.05;;;18.80;49.30;;;;;;5029339;28;20022;-75
2023/07/03 07:11:17;;;;;;;20.65;9.68;;;18.90;49.10;;;;;;5029649;28;20045;-75
2023/07/03 07:13:44;;;;;;;22.88;8.93;;;19.00;48.80;;;;;;5028823;28;20469;-75
2023/07/03 07:16:19;;;;;;;18.70;8.88;;;19.00;48.50;;;;;;5028595;28;20068;-75
2023/07/03 07:18:47;;;;;;;21.70;9.85;;;18.80;49.60;;;;;;5028487;28;20022;-75
2023/07/03 07:21:14;;;;;;;21.15;9.75;;;18.70;49.10;;;;;;5028370;28;20044;-76
2023/07/03 07:23:39;;;;;;;27.75;14.55;;;18.90;49.80;;;;;;5028800;28;20035;-76
2023/07/03 07:26:05;;;;;;;18.95;9.15;;;19.10;50.50;;;;;;5028881;28;20470;-74
2023/07/03 07:28:30;;;;;;;26.15;9.02;;;19.10;48.50;;;;;;5030020;28;20022;-73
2023/07/03 07:30:56;;;;;;;20.63;9.10;;;19.20;48.30;;;;;;5029122;28;20025;-74
2023/07/03 07:33:22;;;;;;;20.88;9.75;;;19.30;48.10;;;;;;5028904;28;20017;-73
2023/07/03 07:35:49;;;;;;;19.75;9.02;;;19.30;47.20;;;;;;5028451;28;20101;-72
2023/07/03 07:38:14;;;;;;;23.88;8.77;;;19.40;46.50;;;;;;5028496;28;20024;-76
2023/07/03 07:40:40;;;;;;;22.02;9.40;;;19.40;45.10;;;;;;5028174;28;20124;-76
2023/07/03 07:43:07;;;;;;;19.98;8.98;;;19.60;46.50;;;;;;5028381;28;20041;-76
2023/07/03 07:45:33;;;;;;;20.63;8.50;;;19.50;45.50;;;;;;5029022;28;20064;-76
2023/07/03 07:47:59;;;;;;;16.17;8.07;;;19.60;45.00;;;;;;5028594;28;20029;-78
2023/07/03 07:50:27;;;;;;;19.05;8.95;;;19.70;44.70;;;;;;5028747;28;20029;-80
2023/07/03 07:52:53;;;;;;;16.88;8.43;;;19.60;44.70;;;;;;5028427;28;20030;-77
2023/07/03 07:55:19;;;;;;;22.60;8.88;;;19.50;46.00;;;;;;5028356;28;20026;-77
2023/07/03 07:57:45;;;;;;;21.10;8.77;;;19.50;46.30;;;;;;5027946;28;20466;-76
2023/07/03 08:00:11;;;;;;;19.25;9.30;;;19.40;46.50;;;;;;5028258;28;20105;-76
2023/07/03 08:02:36;;;;;;;20.08;8.70;;;19.50;45.80;;;;;;5028110;28;20193;-76
2023/07/03 08:05:02;;;;;;;14.68;8.70;;;19.50;46.10;;;;;;5028284;28;20025;-77
2023/07/03 08:07:28;;;;;;;17.38;8.73;;;19.60;46.60;;;;;;5027786;28;20026;-78
2023/07/03 08:09:54;;;;;;;23.55;9.15;;;19.80;46.20;;;;;;5027979;28;20504;-77
2023/07/03 08:12:19;;;;;;;20.38;9.30;;;19.60;46.00;;;;;;5028164;28;20025;-76
2023/07/03 08:14:45;;;;;;;17.33;8.85;;;19.60;46.30;;;;;;5027923;28;20500;-76
2023/07/03 08:17:11;;;;;;;20.70;8.93;;;19.60;46.90;;;;;;5027941;28;20026;-79
2023/07/03 08:19:36;;;;;;;21.33;9.32;;;19.70;47.00;;;;;;5027901;28;20025;-77
2023/07/03 08:22:02;;;;;;;18.42;9.00;;;19.80;45.80;;;;;;5027598;28;20037;-77
2023/07/03 08:24:27;;;;;;;25.02;9.52;;;20.00;46.50;;;;;;5029049;28;20057;-77
2023/07/03 08:26:54;;;;;;;21.80;9.15;;;20.30;45.20;;;;;;5031540;28;20026;-79
2023/07/03 08:29:20;;;;;;;24.88;9.18;;;20.10;44.40;;;;;;5031494;28;20025;-77
2023/07/03 08:31:45;;;;;;;21.35;8.85;;;20.10;45.50;;;;;;5031098;28;20039;-75
2023/07/03 08:34:11;;;;;;;15.45;7.75;;;20.00;44.90;;;;;;5031369;28;20465;-76
2023/07/03 08:36:37;;;;;;;20.95;8.13;;;20.10;44.70;;;;;;5031021;28;20053;-76
2023/07/03 08:39:04;;;;;;;18.10;7.80;;;20.20;44.10;;;;;;5031413;28;20041;-76
2023/07/03 08:41:34;;;;;;;18.75;7.53;;;20.20;44.00;;;;;;5031904;28;20481;-77
2023/07/03 08:44:01;;;;;;;17.88;7.95;;;20.10;43.30;;;;;;5031036;28;20098;-76
2023/07/03 08:46:31;;;;;;;21.02;8.20;;;20.10;43.30;;;;;;5031211;28;20022;-78
2023/07/03 08:49:03;;;;;;;18.90;8.48;;;19.90;43.80;;;;;;5031067;28;20057;-76
2023/07/03 08:51:32;;;;;;;15.38;8.40;;;20.00;43.40;;;;;;5030387;28;20179;-78
2023/07/03 08:54:20;;;;;;;18.95;8.35;;;20.10;43.30;;;;;;5030179;28;20025;-77
2023/07/03 08:56:47;;;;;;;19.98;8.38;;;19.90;44.10;;;;;;5013235;28;20537;-78
2023/07/03 08:59:13;;;;;;;20.95;8.55;;;19.90;44.90;;;;;;5030704;28;20029;-79
2023/07/03 09:01:54;;;;;;;23.25;8.40;;;20.00;44.70;;;;;;5030956;28;20041;-77
2023/07/03 09:04:47;;;;;;;20.70;8.57;;;20.10;44.90;;;;;;5028069;28;20508;-80
2023/07/03 09:07:21;;;;;;;17.88;7.43;;;20.20;44.50;;;;;;5046970;28;20071;-77
2023/07/03 09:10:04;;;;;;;18.67;7.63;;;20.40;44.20;;;;;;5030716;28;20033;-78
2023/07/03 09:12:36;;;;;;;15.57;8.10;;;20.70;44.20;;;;;;5029337;28;20402;-79
2023/07/03 09:15:34;;;;;;;17.30;7.50;;;20.80;43.60;;;;;;5027835;28;20022;-79
2023/07/03 09:18:11;;;;;;;17.25;7.97;;;20.80;42.50;;;;;;5029181;28;20053;-78
2023/07/03 09:20:38;;;;;;;17.70;8.15;;;20.60;43.40;;;;;;5029040;28;20021;-78
2023/07/03 09:23:16;;;;;;;20.02;8.10;;;20.60;43.80;;;;;;5030146;28;20029;-79
2023/07/03 09:26:00;;;;;;;18.52;7.85;;;20.40;43.40;;;;;;5031541;28;20372;-78
2023/07/03 09:28:26;;;;;;;17.90;7.50;;;20.30;43.70;;;;;;5030271;28;20035;-78
2023/07/03 09:30:54;;;;;;;18.20;7.90;;;20.60;43.80;;;;;;5029951;28;20113;-78
2023/07/03 09:33:21;;;;;;;17.27;7.30;;;20.70;42.90;;;;;;5030064;28;20028;-78
2023/07/03 09:35:47;;;;;;;16.73;7.15;;;20.40;44.30;;;;;;5029939;28;20323;-78
2023/07/03 09:38:20;;;;;;;17.92;7.45;;;20.50;41.90;;;;;;5030525;28;20025;-79
2023/07/03 09:40:50;;;;;;;22.02;7.43;;;20.40;41.50;;;;;;5031105;28;20080;-79
2023/07/03 09:43:26;;;;;;;18.45;7.00;;;20.30;42.30;;;;;;5031105;28;20037;-79
2023/07/03 09:46:13;;;;;;;15.63;7.22;;;20.50;40.60;;;;;;5030344;28;20026;-79
2023/07/03 09:48:40;;;;;;;14.80;6.45;;;20.40;40.80;;;;;;5030232;28;20040;-79
2023/07/03 09:51:19;;;;;;;13.48;6.50;;;20.40;41.30;;;;;;5014067;28;20022;-80
2023/07/03 09:53:45;;;;;;;16.58;7.10;;;20.40;41.10;;;;;;5030075;28;20109;-79
2023/07/03 09:56:20;;;;;;;15.52;6.85;;;20.60;41.70;;;;;;5029823;28;20018;-79
2023/07/03 09:58:50;;;;;;;19.10;6.78;;;20.80;40.10;;;;;;5029736;28;20033;-82
2023/07/03 10:01:23;;;;;;;15.70;7.57;;;20.80;40.50;;;;;;5029941;28;20033;-80
2023/07/03 10:04:04;;;;;;;11.68;6.28;;;20.80;40.80;;;;;;5014397;28;20434;-81
2023/07/03 10:06:38;;;;;;;17.40;6.95;;;20.70;40.40;;;;;;5029792;28;20371;-81
2023/07/03 10:09:28;;;;;;;20.23;7.15;;;20.60;41.00;;;;;;5029570;28;20035;-85
2023/07/03 10:12:36;;;;;;;16.58;6.97;;;20.80;39.90;;;;;;5030063;28;20458;-81
2023/07/03 10:15:10;;;;;;;16.73;7.63;;;20.80;40.30;;;;;;5029810;28;20033;-80
2023/07/03 10:17:54;;;;;;;20.92;8.10;;;20.70;43.70;;;;;;5031147;28;20094;-78
2023/07/03 10:20:25;;;;;;;23.40;8.65;;;20.70;45.10;;;;;;5029547;28;20021;-77
2023/07/03 10:22:53;;;;;;;18.27;7.93;;;20.60;45.20;;;;;;5031109;28;20485;-77
2023/07/03 10:25:26;;;;;;;17.20;8.10;;;20.70;46.20;;;;;;5030040;28;20473;-78
2023/07/03 10:27:57;;;;;;;16.10;7.53;;;20.80;45.90;;;;;;5029819;28;20026;-78
2023/07/03 10:30:25;;;;;;;16.35;7.28;;;20.90;44.60;;;;;;5030172;28;20481;-79
2023/07/03 10:32:53;;;;;;;21.27;8.50;;;21.00;44.80;;;;;;5030486;28;20042;-79
2023/07/03 10:35:32;;;;;;;20.00;8.32;;;21.00;44.50;;;;;;5029704;28;20026;-80
2023/07/03 10:38:23;;;;;;;16.15;7.50;;;21.20;43.20;;;;;;5015118;28;20083;-79
2023/07/03 10:41:26;;;;;;;13.73;7.28;;;21.50;41.60;;;;;;5031013;28;20037;-81
2023/07/03 10:43:59;;;;;;;17.33;7.18;;;21.60;41.30;;;;;;5028961;28;20033;-81
2023/07/03 10:46:39;;;;;;;14.55;7.47;;;21.60;41.60;;;;;;5018082;28;20371;-80
2023/07/03 10:49:08;;;;;;;14.35;7.05;;;21.40;41.90;;;;;;5028886;28;20108;-79
2023/07/03 10:51:54;;;;;;;16.55;7.63;;;21.40;42.20;;;;;;5029637;28;20038;-78
2023/07/03 10:54:48;;;;;;;19.52;7.72;;;21.50;42.30;;;;;;5031925;28;20094;-79
2023/07/03 10:57:22;;;;;;;19.38;7.43;;;21.50;42.60;;;;;;5031011;28;20370;-79
2023/07/03 11:00:13;;;;;;;17.40;7.38;;;21.40;42.30;;;;;;5015297;28;20029;-83
2023/07/03 11:03:05;;;;;;;18.98;7.43;;;21.10;43.10;;;;;;5029314;28;20037;-79
2023/07/03 11:05:56;;;;;;;16.50;7.13;;;21.10;43.50;;;;;;5029785;28;20021;-80
2023/07/03 11:08:59;;;;;;;21.65;7.93;;;21.10;43.90;;;;;;5043711;28;20029;-80
2023/07/03 11:12:02;;;;;;;14.52;6.47;;;20.90;42.90;;;;;;5023861;28;20422;-81
2023/07/03 11:15:02;;;;;;;11.27;5.95;;;20.90;41.00;;;;;;5030032;28;20101;-77
2023/07/03 11:17:38;;;;;;;13.48;5.90;;;20.80;39.50;;;;;;5027582;28;20025;-79
2023/07/03 11:20:56;;;;;;;12.77;5.35;;;20.70;39.90;;;;;;5028586;28;20089;-79
2023/07/03 11:23:37;;;;;;;10.57;5.45;;;20.70;40.40;;;;;;5027850;28;20363;-80
2023/07/03 11:26:11;;;;;;;12.27;5.57;;;21.00;39.40;;;;;;5028490;28;20043;-81
2023/07/03 11:28:47;;;;;;;11.63;5.53;;;21.00;39.20;;;;;;5027588;28;20064;-80
2023/07/03 11:31:17;;;;;;;13.98;5.72;;;21.20;39.20;;;;;;5030427;28;20481;-78
2023/07/03 11:33:48;;;;;;;14.52;5.68;;;21.20;39.80;;;;;;5029949;28;20371;-80
2023/07/03 11:36:35;;;;;;;13.25;5.93;;;21.50;39.20;;;;;;5028519;28;20021;-78
2023/07/03 11:39:26;;;;;;;13.05;5.57;;;21.80;39.20;;;;;;5027155;28;20018;-79
2023/07/03 11:41:54;;;;;;;12.63;6.10;;;21.80;38.60;;;;;;5023539;28;20442;-79
2023/07/03 11:44:52;;;;;;;14.73;6.40;;;21.90;39.20;;;;;;5028166;28;20064;-78
2023/07/03 11:47:43;;;;;;;14.63;6.55;;;21.90;38.60;;;;;;5026899;28;20014;-79
2023/07/03 11:50:09;;;;;;;13.32;6.55;;;21.70;39.10;;;;;;5028003;28;20055;-79
2023/07/03 11:52:38;;;;;;;11.27;5.97;;;21.60;38.70;;;;;;5028368;28;20041;-79
2023/07/03 11:55:16;;;;;;;13.23;5.80;;;21.60;38.50;;;;;;5029111;28;20043;-79
2023/07/03 11:57:46;;;;;;;14.05;6.15;;;21.70;39.90;;;;;;5028894;28;20025;-78
2023/07/03 12:00:29;;;;;;;12.20;5.45;;;22.00;38.90;;;;;;5029680;28;20025;-80
2023/07/03 12:03:06;;;;;;;15.38;5.97;;;22.10;38.90;;;;;;5015896;28;20041;-84
2023/07/03 12:05:51;;;;;;;11.73;5.47;;;22.10;38.20;;;;;;5016952;28;20061;-78
2023/07/03 12:08:26;;;;;;;10.98;5.40;;;22.10;38.60;;;;;;5052416;28;20106;-80
2023/07/03 12:10:57;;;;;;;12.07;4.68;;;22.10;38.50;;;;;;5032308;28;20022;-79
2023/07/03 12:13:33;;;;;;;12.68;4.65;;;22.00;37.90;;;;;;5031734;28;20024;-78
2023/07/03 12:16:02;;;;;;;9.50;4.70;;;22.00;37.90;;;;;;5027477;28;20024;-79
2023/07/03 12:18:28;;;;;;;12.35;5.28;;;22.20;37.90;;;;;;5031421;28;20018;-78
2023/07/03 12:21:05;;;;;;;11.85;5.03;;;22.20;38.40;;;;;;5031637;28;20033;-78
2023/07/03 12:23:33;;;;;;;8.15;4.65;;;22.00;38.20;;;;;;5029083;28;20044;-79
2023/07/03 12:26:09;;;;;;;11.88;4.65;;;22.00;38.60;;;;;;5031046;28;20024;-79
2023/07/03 12:28:36;;;;;;;8.25;4.65;;;22.20;38.80;;;;;;5029057;28;20084;-78
2023/07/03 12:31:21;;;;;;;6.53;3.97;;;22.30;38.40;;;;;;5032680;28;20075;-83
2023/07/03 12:33:57;;;;;;;12.55;5.30;;;22.60;37.20;;;;;;5031052;28;20021;-79
2023/07/03 12:36:33;;;;;;;10.23;4.38;;;22.80;37.30;;;;;;5031018;28;20066;-78
2023/07/03 12:39:09;;;;;;;8.18;3.95;;;22.90;36.00;;;;;;5030140;28;20021;-79
2023/07/03 12:41:37;;;;;;;9.55;4.10;;;23.00;35.20;;;;;;5030232;28;20045;-78
2023/07/03 12:44:06;;;;;;;10.93;3.95;;;23.20;35.40;;;;;;5030875;28;20032;-78
2023/07/03 12:46:37;;;;;;;8.10;3.90;;;23.20;34.70;;;;;;5028680;28;20167;-78
2023/07/03 12:49:15;;;;;;;7.75;4.00;;;23.30;35.30;;;;;;5031288;28;20109;-79